createdAt,value
2022-08-20T00:00:42.922Z,65.71
2022-08-20T00:03:18.848Z,65.66
2022-08-20T00:05:53.967Z,65.98
2022-08-20T00:08:27.336Z,65.85
2022-08-20T00:11:01.423Z,65.91
2022-08-20T00:13:38.210Z,66.05
2022-08-20T00:16:11.352Z,66.21
2022-08-20T00:18:42.589Z,65.74
2022-08-20T00:21:18.672Z,66.11
2022-08-20T00:23:51.784Z,66.10
2022-08-20T00:26:23.084Z,66.10
2022-08-20T00:28:53.437Z,65.82
2022-08-20T00:31:25.003Z,66.05
2022-08-20T00:33:54.306Z,66.80
2022-08-20T00:36:32.769Z,68.09
2022-08-20T00:39:02.728Z,69.37
2022-08-20T00:41:31.890Z,69.08
2022-08-20T00:44:31.581Z,69.17
2022-08-20T00:47:00.927Z,69.05
2022-08-20T00:49:32.483Z,68.76
2022-08-20T00:52:14.263Z,68.93
2022-08-20T00:54:55.046Z,68.74
2022-08-20T00:57:44.529Z,68.99
2022-08-20T01:00:28.571Z,69.36
2022-08-20T01:03:00.890Z,69.45
2022-08-20T01:05:30.979Z,69.38
2022-08-20T01:07:59.469Z,69.95
2022-08-20T01:10:33.274Z,69.75
2022-08-20T01:13:11.365Z,69.43
2022-08-20T01:15:43.795Z,69.49
2022-08-20T01:18:18.549Z,69.56
2022-08-20T01:21:04.849Z,69.93
2022-08-20T01:23:55.779Z,70.00
2022-08-20T01:26:31.864Z,70.14
2022-08-20T01:29:12.553Z,70.12
2022-08-20T01:31:46.128Z,70.24
2022-08-20T01:34:21.310Z,70.40
2022-08-20T01:36:53.407Z,70.30
2022-08-20T01:39:27.737Z,70.28
2022-08-20T01:42:15.683Z,71.31
2022-08-20T01:44:47.424Z,72.03
2022-08-20T01:47:26.231Z,71.85
2022-08-20T01:50:00.801Z,71.82
2022-08-20T01:52:34.849Z,71.78
2022-08-20T01:55:06.740Z,71.28
2022-08-20T01:57:37.745Z,71.51
2022-08-20T02:00:17.943Z,71.41
2022-08-20T02:02:51.056Z,71.79
2022-08-20T02:05:21.174Z,71.76
2022-08-20T02:07:49.798Z,72.04
2022-08-20T02:10:19.231Z,72.24
2022-08-20T02:12:47.784Z,73.17
2022-08-20T02:15:18.958Z,74.39
2022-08-20T02:18:07.988Z,75.69
2022-08-20T02:20:41.917Z,75.23
2022-08-20T02:23:12.598Z,75.32
2022-08-20T02:25:44.103Z,75.48
2022-08-20T02:28:15.935Z,76.49
2022-08-20T02:30:48.721Z,75.48
2022-08-20T02:33:22.338Z,75.00
2022-08-20T02:35:56.655Z,75.43
2022-08-20T02:38:26.194Z,75.63
2022-08-20T02:40:56.832Z,75.20
2022-08-20T02:43:26.085Z,74.19
2022-08-20T02:45:54.711Z,73.35
2022-08-20T02:48:23.991Z,73.59
2022-08-20T02:50:59.002Z,73.85
2022-08-20T02:53:30.415Z,74.42
2022-08-20T02:56:04.355Z,74.81
2022-08-20T02:58:36.219Z,73.65
2022-08-20T03:01:08.142Z,74.96
2022-08-20T03:03:37.084Z,74.55
2022-08-20T03:06:07.412Z,74.14
2022-08-20T03:08:37.792Z,74.63
2022-08-20T03:11:07.308Z,74.86
2022-08-20T03:13:36.803Z,74.79
2022-08-20T03:16:07.528Z,74.61
2022-08-20T03:18:41.577Z,73.92
2022-08-20T03:21:11.825Z,74.38
2022-08-20T03:23:44.148Z,74.79
2022-08-20T03:26:14.598Z,75.15
2022-08-20T03:28:45.110Z,74.94
2022-08-20T03:31:18.185Z,75.10
2022-08-20T03:33:52.601Z,75.50
2022-08-20T03:36:28.285Z,75.83
2022-08-20T03:38:59.691Z,75.30
2022-08-20T03:41:29.310Z,74.86
2022-08-20T03:43:58.638Z,75.59
2022-08-20T03:46:29.271Z,75.89
2022-08-20T03:49:00.023Z,76.41
2022-08-20T03:51:34.385Z,75.70
2022-08-20T03:54:23.984Z,76.60
2022-08-20T03:56:58.199Z,76.55
2022-08-20T03:59:27.067Z,76.26
2022-08-20T04:01:57.686Z,76.13
2022-08-20T04:04:28.549Z,76.46
2022-08-20T04:07:02.355Z,76.85
2022-08-20T04:09:31.934Z,76.68
2022-08-20T04:12:01.389Z,76.61
2022-08-20T04:14:32.463Z,76.13
2022-08-20T04:17:10.898Z,75.58
2022-08-20T04:19:39.625Z,74.91
2022-08-20T04:22:08.764Z,74.08
2022-08-20T04:24:37.645Z,73.51
2022-08-20T04:27:06.341Z,72.59
2022-08-20T04:29:37.049Z,71.75
2022-08-20T04:32:07.385Z,71.37
2022-08-20T04:34:37.398Z,71.13
2022-08-20T04:37:16.567Z,70.74
2022-08-20T04:40:06.330Z,70.74
2022-08-20T04:42:39.441Z,69.87
2022-08-20T04:45:11.047Z,69.08
2022-08-20T04:47:42.118Z,67.94
2022-08-20T04:50:14.562Z,66.57
2022-08-20T04:52:45.721Z,66.44
2022-08-20T04:55:20.691Z,66.03
2022-08-20T04:57:54.993Z,63.62
2022-08-20T05:00:23.898Z,62.21
2022-08-20T05:02:53.136Z,61.35
2022-08-20T05:05:22.922Z,60.64
2022-08-20T05:07:52.620Z,59.68
2022-08-20T05:10:26.614Z,59.67
2022-08-20T05:12:57.202Z,59.02
2022-08-20T05:15:26.987Z,58.62
2022-08-20T05:18:00.914Z,57.72
2022-08-20T05:20:34.349Z,56.62
2022-08-20T05:23:04.586Z,54.92
2022-08-20T05:25:34.624Z,53.98
2022-08-20T05:28:10.035Z,53.17
2022-08-20T05:30:41.611Z,52.77
2022-08-20T05:33:16.542Z,53.01
2022-08-20T05:35:45.403Z,52.39
2022-08-20T05:38:16.698Z,51.37
2022-08-20T05:40:46.716Z,51.76
2022-08-20T05:43:16.382Z,50.55
2022-08-20T05:45:50.699Z,49.04
2022-08-20T05:48:25.652Z,48.26
2022-08-20T05:50:55.066Z,47.35
2022-08-20T05:53:25.603Z,46.05
2022-08-20T05:55:55.341Z,45.21
2022-08-20T05:58:34.433Z,44.22
2022-08-20T06:01:04.390Z,43.53
2022-08-20T06:03:52.450Z,42.63
2022-08-20T06:06:44.982Z,41.60
2022-08-20T06:09:12.554Z,41.69
2022-08-20T06:11:45.054Z,41.35
2022-08-20T06:14:16.859Z,40.08
2022-08-20T06:16:57.089Z,39.66
2022-08-20T06:19:32.361Z,39.04
2022-08-20T06:22:08.664Z,39.59
2022-08-20T06:24:51.997Z,39.59
2022-08-20T06:27:21.132Z,39.20
2022-08-20T06:29:54.373Z,39.64
2022-08-20T06:32:32.288Z,39.56
2022-08-20T06:35:04.820Z,38.84
2022-08-20T06:37:38.396Z,38.61
2022-08-20T06:40:14.159Z,38.18
2022-08-20T06:42:48.834Z,38.65
2022-08-20T06:45:32.368Z,38.18
2022-08-20T06:48:06.716Z,37.79
2022-08-20T06:50:47.864Z,37.02
2022-08-20T06:53:20.729Z,36.32
2022-08-20T06:55:53.497Z,35.49
2022-08-20T06:58:36.665Z,35.26
2022-08-20T07:01:09.364Z,34.23
2022-08-20T07:03:55.397Z,33.37
2022-08-20T07:06:28.702Z,33.09
2022-08-20T07:09:01.592Z,32.90
2022-08-20T07:11:30.564Z,32.02
2022-08-20T07:14:03.025Z,31.80
2022-08-20T07:16:34.566Z,31.30
2022-08-20T07:19:03.749Z,30.90
2022-08-20T07:21:34.038Z,31.05
2022-08-20T07:24:04.506Z,31.34
2022-08-20T07:26:35.407Z,31.02
2022-08-20T07:29:04.793Z,30.41
2022-08-20T07:31:52.860Z,30.64
2022-08-20T07:34:25.304Z,30.02
2022-08-20T07:36:55.781Z,29.88
2022-08-20T07:39:28.576Z,29.89
2022-08-20T07:42:08.040Z,29.40
2022-08-20T07:44:39.195Z,27.98
2022-08-20T07:47:08.425Z,27.41
2022-08-20T07:49:48.208Z,26.87
2022-08-20T07:52:17.707Z,27.36
2022-08-20T07:54:48.331Z,27.35
2022-08-20T07:57:21.943Z,27.08
2022-08-20T07:59:57.134Z,26.90
2022-08-20T08:02:28.369Z,26.87
2022-08-20T08:04:58.435Z,26.57
2022-08-20T08:07:31.040Z,26.50
2022-08-20T08:10:02.183Z,26.25
2022-08-20T08:12:38.314Z,26.19
2022-08-20T08:15:11.764Z,26.67
2022-08-20T08:17:43.742Z,26.22
2022-08-20T08:20:14.275Z,26.28
2022-08-20T08:22:46.147Z,25.80
2022-08-20T08:25:17.590Z,25.90
2022-08-20T08:27:53.021Z,25.76
2022-08-20T08:30:24.606Z,25.70
2022-08-20T08:33:16.845Z,25.31
2022-08-20T08:35:48.675Z,25.20
2022-08-20T08:38:19.125Z,24.94
2022-08-20T08:40:59.783Z,24.58
2022-08-20T08:43:32.032Z,24.28
2022-08-20T08:46:08.227Z,24.71
2022-08-20T08:48:47.248Z,25.03
2022-08-20T08:51:36.155Z,24.67
2022-08-20T08:54:07.146Z,24.51
2022-08-20T08:56:36.511Z,24.07
2022-08-20T08:59:12.225Z,23.97
2022-08-20T09:01:53.861Z,23.43
2022-08-20T11:14:29.510Z,25.72
2022-08-20T11:17:02.310Z,26.27
2022-08-20T11:19:32.581Z,26.72
2022-08-20T11:22:01.273Z,27.51
2022-08-20T11:24:30.567Z,27.95
2022-08-20T11:27:04.683Z,28.73
2022-08-20T11:29:35.474Z,29.09
2022-08-20T11:32:09.923Z,29.16
2022-08-20T11:34:40.154Z,30.46
2022-08-20T11:37:14.202Z,30.73
2022-08-20T11:39:57.073Z,30.38
2022-08-20T11:42:31.612Z,30.47
2022-08-20T11:45:08.294Z,31.26
2022-08-20T11:47:44.927Z,31.16
2022-08-20T11:50:19.707Z,31.69
2022-08-20T11:52:56.549Z,31.85
2022-08-20T11:55:31.251Z,32.51
2022-08-20T11:58:08.264Z,32.55
2022-08-20T12:00:40.646Z,32.79
2022-08-20T12:03:15.557Z,33.45
2022-08-20T12:05:50.760Z,33.93
2022-08-20T12:08:27.170Z,34.27
2022-08-20T12:11:00.029Z,34.35
2022-08-20T12:13:48.448Z,34.36
2022-08-20T12:16:26.917Z,34.56
2022-08-20T12:19:04.597Z,34.38
2022-08-20T12:21:34.095Z,34.76
2022-08-20T12:24:04.881Z,34.90
2022-08-20T12:26:36.578Z,35.36
2022-08-20T12:29:09.868Z,35.63
2022-08-20T12:31:43.143Z,35.83
2022-08-20T12:34:18.880Z,36.16
2022-08-20T12:36:54.065Z,37.30
2022-08-20T12:39:28.716Z,38.54
2022-08-20T12:42:03.127Z,39.06
2022-08-20T12:44:35.210Z,39.38
2022-08-20T12:47:27.220Z,39.78
2022-08-20T12:50:00.682Z,40.21
2022-08-20T12:52:40.106Z,39.92
2022-08-20T12:55:11.452Z,39.58
2022-08-20T12:57:50.322Z,40.01
2022-08-20T13:00:27.609Z,40.33
2022-08-20T13:03:09.096Z,40.96
2022-08-20T13:05:38.915Z,40.72
2022-08-20T13:08:13.892Z,42.57
2022-08-20T13:10:46.850Z,43.71
2022-08-20T13:13:20.324Z,44.27
2022-08-20T13:15:57.986Z,45.60
2022-08-20T13:18:26.863Z,47.19
2022-08-20T13:20:57.735Z,47.67
2022-08-20T13:23:27.911Z,47.48
2022-08-20T13:25:57.717Z,46.99
2022-08-20T13:28:29.598Z,48.56
2022-08-20T13:31:04.556Z,50.37
2022-08-20T13:33:39.319Z,50.08
2022-08-20T13:36:12.759Z,50.97
2022-08-20T13:38:42.436Z,50.95
2022-08-20T13:41:15.754Z,50.67
2022-08-20T13:43:44.534Z,50.39
2022-08-20T13:46:17.567Z,50.93
2022-08-20T13:48:51.218Z,51.62
2022-08-20T13:51:27.630Z,51.37
2022-08-20T13:54:04.150Z,50.68
2022-08-20T13:56:34.905Z,50.34
2022-08-20T13:59:07.451Z,50.61
2022-08-20T14:01:47.510Z,50.69
2022-08-20T14:04:20.216Z,50.67
2022-08-20T14:06:48.777Z,50.72
2022-08-20T14:09:25.256Z,51.03
2022-08-20T14:11:59.175Z,50.76
2022-08-20T14:14:30.811Z,50.33
2022-08-20T14:17:12.687Z,50.38
2022-08-20T14:19:48.252Z,49.94
2022-08-20T14:22:18.148Z,49.66
2022-08-20T14:24:55.733Z,49.36
2022-08-20T14:27:31.109Z,49.33
2022-08-20T14:30:06.169Z,49.05
2022-08-20T14:32:39.091Z,49.63
2022-08-20T14:35:12.172Z,49.35
2022-08-20T14:37:46.814Z,48.99
2022-08-20T14:40:24.711Z,50.27
2022-08-20T14:42:55.146Z,50.51
2022-08-20T14:45:29.556Z,50.48
2022-08-20T14:48:00.130Z,50.42
2022-08-20T14:50:37.237Z,50.05
2022-08-20T14:53:10.579Z,49.34
2022-08-20T14:55:44.697Z,48.40
2022-08-20T14:58:18.352Z,47.76
2022-08-20T15:00:48.224Z,47.26
2022-08-20T15:03:17.770Z,47.24
2022-08-20T15:05:51.203Z,46.55
2022-08-20T15:08:21.448Z,46.24
2022-08-20T15:10:59.140Z,46.19
2022-08-20T15:13:30.892Z,46.66
2022-08-20T15:16:03.211Z,47.26
2022-08-20T15:18:35.907Z,47.71
2022-08-20T15:21:10.417Z,48.13
2022-08-20T15:23:39.817Z,48.71
2022-08-20T15:26:10.053Z,49.39
2022-08-20T15:28:41.822Z,50.18
2022-08-20T15:31:15.394Z,50.00
2022-08-20T15:33:49.875Z,49.78
2022-08-20T15:36:18.812Z,49.81
2022-08-20T15:38:52.183Z,48.91
2022-08-20T15:41:21.608Z,49.03
2022-08-20T15:43:55.150Z,49.13
2022-08-20T15:46:31.137Z,49.43
2022-08-20T15:49:14.162Z,48.87
2022-08-20T15:51:50.914Z,49.03
2022-08-20T15:54:25.820Z,48.60
2022-08-20T15:57:18.833Z,48.61
2022-08-20T16:00:25.112Z,49.05
2022-08-20T16:03:11.200Z,49.14
2022-08-20T16:05:59.899Z,49.80
2022-08-20T16:08:49.564Z,51.48
2022-08-20T16:11:56.095Z,51.95
2022-08-20T16:14:35.262Z,51.93
2022-08-20T16:17:12.631Z,51.76
2022-08-20T16:19:51.517Z,51.53
2022-08-20T16:22:22.306Z,51.55
2022-08-20T16:24:52.734Z,51.90
2022-08-20T16:27:48.352Z,51.67
2022-08-20T16:30:40.157Z,51.69
2022-08-20T16:33:33.583Z,51.72
2022-08-20T16:36:14.762Z,51.78
2022-08-20T16:39:00.585Z,51.79
2022-08-20T16:41:40.818Z,52.57
2022-08-20T16:44:22.631Z,52.84
2022-08-20T16:47:00.418Z,52.87
2022-08-20T16:50:08.425Z,53.20
2022-08-20T16:52:41.653Z,53.59
2022-08-20T16:55:16.394Z,53.54
2022-08-20T16:57:56.888Z,53.51
2022-08-20T17:00:45.024Z,53.56
2022-08-20T17:03:38.572Z,53.51
2022-08-20T17:06:30.145Z,53.71
2022-08-20T17:09:04.813Z,53.49
2022-08-20T17:11:40.340Z,53.91
2022-08-20T17:14:18.560Z,54.03
2022-08-20T17:16:53.275Z,54.00
2022-08-20T17:19:29.928Z,53.77
2022-08-20T17:22:12.071Z,53.82
2022-08-20T17:24:41.154Z,54.21
2022-08-20T17:27:43.423Z,54.49
2022-08-20T17:30:28.744Z,54.46
2022-08-20T17:33:05.218Z,54.84
2022-08-20T17:35:43.480Z,55.07
2022-08-20T17:38:45.848Z,55.14
2022-08-20T17:41:25.204Z,55.99
2022-08-20T17:44:07.393Z,55.78
2022-08-20T17:46:47.898Z,55.70
2022-08-20T17:49:37.766Z,56.11
2022-08-20T17:52:26.147Z,56.25
2022-08-20T17:54:59.196Z,56.73
2022-08-20T17:57:35.875Z,56.81
2022-08-20T18:00:14.462Z,56.87
2022-08-20T18:02:45.883Z,56.93
2022-08-20T18:05:21.989Z,56.89
2022-08-20T18:08:12.288Z,57.30
2022-08-20T18:11:01.842Z,56.75
2022-08-20T18:13:55.740Z,56.19
2022-08-20T18:17:17.919Z,56.55
2022-08-20T18:20:21.021Z,56.58
2022-08-20T18:22:56.406Z,57.07
2022-08-20T18:25:50.153Z,57.51
2022-08-20T18:28:52.891Z,57.95
2022-08-20T18:31:54.053Z,57.56
2022-08-20T18:34:40.643Z,57.33
2022-08-20T18:37:25.859Z,57.43
2022-08-20T18:40:12.034Z,56.97
2022-08-20T18:42:41.093Z,57.20
2022-08-20T18:45:13.428Z,57.17
2022-08-20T18:47:46.177Z,57.38
2022-08-20T18:50:33.211Z,57.55
2022-08-20T18:53:17.096Z,57.60
2022-08-20T18:56:04.916Z,57.78
2022-08-20T18:58:54.703Z,57.55
2022-08-20T19:01:26.307Z,58.01
2022-08-20T19:03:58.564Z,58.10
2022-08-20T19:06:56.884Z,58.14
2022-08-20T19:09:55.697Z,58.77
2022-08-20T19:12:44.404Z,59.29
2022-08-20T19:15:19.294Z,59.39
2022-08-20T19:18:09.980Z,59.39
2022-08-20T19:20:51.762Z,59.78
2022-08-20T19:23:26.558Z,59.98
2022-08-20T19:26:25.313Z,59.83
2022-08-20T19:29:12.552Z,60.39
2022-08-20T19:31:48.972Z,60.61
2022-08-20T19:34:28.736Z,60.42
2022-08-20T19:37:27.704Z,61.02
2022-08-20T19:39:56.847Z,61.27
2022-08-20T19:42:30.724Z,61.28
2022-08-20T19:45:07.897Z,61.60
2022-08-20T19:48:00.466Z,61.70
2022-08-20T19:51:06.680Z,61.41
2022-08-20T19:53:43.371Z,61.63
2022-08-20T19:56:20.596Z,61.67
2022-08-20T19:59:05.816Z,61.46
2022-08-20T20:01:36.793Z,61.65
2022-08-20T20:04:15.173Z,61.75
2022-08-20T20:06:49.849Z,61.65
2022-08-20T20:09:28.443Z,61.61
2022-08-20T20:12:03.137Z,61.36
2022-08-20T20:14:36.993Z,61.73
2022-08-20T20:17:08.021Z,61.55
2022-08-20T20:19:57.503Z,61.58
2022-08-20T20:22:28.443Z,61.86
2022-08-20T20:25:19.793Z,61.73
2022-08-20T20:27:54.849Z,61.56
2022-08-20T20:30:31.059Z,61.97
2022-08-20T20:33:03.693Z,61.68
2022-08-20T20:35:36.277Z,61.96
2022-08-20T20:38:13.525Z,62.09
2022-08-20T20:40:52.268Z,62.06
2022-08-20T20:43:42.035Z,62.42
2022-08-20T20:46:24.045Z,62.26
2022-08-20T20:48:59.106Z,62.68
2022-08-20T20:51:33.625Z,62.63
2022-08-20T20:54:08.388Z,62.78
2022-08-20T20:56:41.608Z,62.92
2022-08-20T20:59:11.495Z,63.35
2022-08-20T21:01:49.928Z,63.25
2022-08-20T21:04:24.250Z,63.29
2022-08-20T21:06:55.561Z,63.02
2022-08-20T21:09:26.917Z,63.00
2022-08-20T21:11:55.540Z,62.95
2022-08-20T21:14:24.799Z,63.17
2022-08-20T21:16:56.970Z,63.35
2022-08-20T21:19:26.613Z,63.11
2022-08-20T21:21:56.619Z,63.34
2022-08-20T21:24:26.819Z,63.69
2022-08-20T21:26:55.724Z,64.50
2022-08-20T21:29:32.552Z,64.39
2022-08-20T21:32:01.765Z,64.67
2022-08-20T21:34:30.456Z,64.87
2022-08-20T21:37:03.229Z,64.87
2022-08-20T21:39:33.045Z,64.64
2022-08-20T21:42:03.983Z,64.93
2022-08-20T21:44:46.209Z,65.34
2022-08-20T21:47:19.957Z,64.98
2022-08-20T21:49:48.585Z,65.20
2022-08-20T21:52:21.022Z,65.19
2022-08-20T21:54:51.511Z,65.82
2022-08-20T21:57:24.646Z,65.54
2022-08-20T21:59:54.586Z,65.41
2022-08-20T22:02:25.160Z,65.30
2022-08-20T22:04:55.308Z,65.66
2022-08-20T22:07:26.517Z,66.05
2022-08-20T22:09:56.231Z,66.05
2022-08-20T22:12:27.020Z,66.23
2022-08-20T22:14:59.588Z,65.94
2022-08-20T22:17:31.248Z,66.25
2022-08-20T22:20:04.477Z,66.30
2022-08-20T22:22:35.528Z,66.11
2022-08-20T22:25:06.220Z,66.12
2022-08-20T22:27:41.214Z,66.06
2022-08-20T22:30:11.140Z,65.84
2022-08-20T22:32:51.954Z,65.78
2022-08-20T22:35:21.455Z,65.88
2022-08-20T22:37:50.586Z,65.42
2022-08-20T22:40:19.414Z,65.20
2022-08-20T22:42:48.069Z,65.19
2022-08-20T22:45:18.080Z,65.17
2022-08-20T22:47:48.161Z,65.51
2022-08-20T22:50:23.504Z,65.30
2022-08-20T22:52:53.345Z,64.96
2022-08-20T22:55:24.397Z,64.68
2022-08-20T22:57:54.892Z,64.45
2022-08-20T23:00:26.571Z,64.77
2022-08-20T23:02:59.600Z,64.28
2022-08-20T23:05:31.894Z,63.90
2022-08-20T23:08:01.398Z,64.02
2022-08-20T23:10:30.898Z,63.98
2022-08-20T23:13:00.095Z,63.88
2022-08-20T23:15:38.033Z,63.72
2022-08-20T23:18:17.233Z,63.86
2022-08-20T23:20:54.152Z,63.95
2022-08-20T23:23:26.140Z,63.83
2022-08-20T23:25:56.332Z,63.64
2022-08-20T23:28:29.193Z,63.57
2022-08-20T23:30:59.442Z,63.52
2022-08-20T23:33:27.765Z,63.24
2022-08-20T23:35:59.721Z,63.22
2022-08-20T23:38:29.618Z,63.19
2022-08-20T23:41:01.910Z,62.90
2022-08-20T23:43:34.125Z,63.28
2022-08-20T23:46:06.324Z,63.30
2022-08-20T23:48:37.689Z,63.51
2022-08-20T23:51:08.567Z,63.44
2022-08-20T23:53:39.104Z,63.39
2022-08-20T23:56:11.177Z,63.50
2022-08-20T23:58:39.688Z,63.29
